sensor_id;sensor_type;location;lat;lon;timestamp;P1;durP1;ratioP1;P2;durP2;ratioP2
12302;SDS011;6214;48.012;7.862;2023-02-24T00:01:52;23.90;;;9.32;;
12302;SDS011;6214;48.012;7.862;2023-02-24T00:04:27;23.48;;;10.07;;
12302;SDS011;6214;48.012;7.862;2023-02-24T00:06:56;23.15;;;9.68;;
12302;SDS011;6214;48.012;7.862;2023-02-24T00:09:24;22.90;;;9.98;;
12302;SDS011;6214;48.012;7.862;2023-02-24T00:11:53;21.35;;;8.88;;
12302;SDS011;6214;48.012;7.862;2023-02-24T00:14:26;22.30;;;8.65;;
12302;SDS011;6214;48.012;7.862;2023-02-24T00:16:55;25.10;;;9.38;;
12302;SDS011;6214;48.012;7.862;2023-02-24T00:19:27;25.50;;;9.32;;
12302;SDS011;6214;48.012;7.862;2023-02-24T00:21:58;21.85;;;9.07;;
12302;SDS011;6214;48.012;7.862;2023-02-24T00:24:27;22.40;;;8.63;;
12302;SDS011;6214;48.012;7.862;2023-02-24T00:26:54;23.95;;;8.80;;
12302;SDS011;6214;48.012;7.862;2023-02-24T00:29:25;22.08;;;8.80;;
12302;SDS011;6214;48.012;7.862;2023-02-24T00:31:57;22.70;;;9.00;;
12302;SDS011;6214;48.012;7.862;2023-02-24T00:34:32;22.70;;;8.23;;
12302;SDS011;6214;48.012;7.862;2023-02-24T00:37:01;22.60;;;8.00;;
12302;SDS011;6214;48.012;7.862;2023-02-24T00:39:32;23.90;;;9.30;;
12302;SDS011;6214;48.012;7.862;2023-02-24T00:42:00;21.85;;;8.95;;
12302;SDS011;6214;48.012;7.862;2023-02-24T00:44:33;23.88;;;8.85;;
12302;SDS011;6214;48.012;7.862;2023-02-24T00:47:02;22.30;;;8.65;;
12302;SDS011;6214;48.012;7.862;2023-02-24T00:49:31;22.08;;;9.25;;
12302;SDS011;6214;48.012;7.862;2023-02-24T00:51:58;21.98;;;8.70;;
12302;SDS011;6214;48.012;7.862;2023-02-24T00:54:25;21.60;;;8.75;;
12302;SDS011;6214;48.012;7.862;2023-02-24T00:56:54;22.38;;;8.10;;
12302;SDS011;6214;48.012;7.862;2023-02-24T00:59:21;24.95;;;9.25;;
12302;SDS011;6214;48.012;7.862;2023-02-24T01:01:52;23.17;;;9.75;;
12302;SDS011;6214;48.012;7.862;2023-02-24T01:04:20;21.70;;;9.50;;
12302;SDS011;6214;48.012;7.862;2023-02-24T01:06:49;22.57;;;10.33;;
12302;SDS011;6214;48.012;7.862;2023-02-24T01:09:26;24.67;;;10.95;;
12302;SDS011;6214;48.012;7.862;2023-02-24T01:11:55;23.08;;;9.85;;
12302;SDS011;6214;48.012;7.862;2023-02-24T01:14:42;22.40;;;9.60;;
12302;SDS011;6214;48.012;7.862;2023-02-24T01:17:13;25.13;;;10.40;;
12302;SDS011;6214;48.012;7.862;2023-02-24T01:19:43;24.95;;;10.85;;
12302;SDS011;6214;48.012;7.862;2023-02-24T01:22:13;24.38;;;11.50;;
12302;SDS011;6214;48.012;7.862;2023-02-24T01:24:41;25.50;;;11.43;;
12302;SDS011;6214;48.012;7.862;2023-02-24T01:27:09;23.17;;;10.93;;
12302;SDS011;6214;48.012;7.862;2023-02-24T01:29:38;26.17;;;10.30;;
12302;SDS011;6214;48.012;7.862;2023-02-24T01:32:05;24.33;;;10.38;;
12302;SDS011;6214;48.012;7.862;2023-02-24T01:34:33;23.23;;;10.88;;
12302;SDS011;6214;48.012;7.862;2023-02-24T01:37:00;23.40;;;10.98;;
12302;SDS011;6214;48.012;7.862;2023-02-24T01:39:27;25.67;;;10.75;;
12302;SDS011;6214;48.012;7.862;2023-02-24T01:41:54;23.98;;;9.80;;
12302;SDS011;6214;48.012;7.862;2023-02-24T01:46:51;24.15;;;10.23;;
12302;SDS011;6214;48.012;7.862;2023-02-24T01:49:23;23.23;;;9.30;;
12302;SDS011;6214;48.012;7.862;2023-02-24T01:54:36;22.80;;;9.10;;
12302;SDS011;6214;48.012;7.862;2023-02-24T01:57:09;22.45;;;8.80;;
12302;SDS011;6214;48.012;7.862;2023-02-24T01:59:42;23.35;;;9.18;;
12302;SDS011;6214;48.012;7.862;2023-02-24T02:02:11;23.55;;;8.50;;
12302;SDS011;6214;48.012;7.862;2023-02-24T02:04:43;22.90;;;8.57;;
12302;SDS011;6214;48.012;7.862;2023-02-24T02:07:15;23.00;;;8.02;;
12302;SDS011;6214;48.012;7.862;2023-02-24T02:09:45;23.60;;;8.85;;
12302;SDS011;6214;48.012;7.862;2023-02-24T02:12:13;23.48;;;8.93;;
12302;SDS011;6214;48.012;7.862;2023-02-24T02:14:42;25.48;;;9.80;;
12302;SDS011;6214;48.012;7.862;2023-02-24T02:26:09;22.17;;;8.70;;
12302;SDS011;6214;48.012;7.862;2023-02-24T02:39:50;22.70;;;8.70;;
12302;SDS011;6214;48.012;7.862;2023-02-24T02:48:21;21.63;;;9.27;;
12302;SDS011;6214;48.012;7.862;2023-02-24T02:50:57;21.73;;;8.70;;
12302;SDS011;6214;48.012;7.862;2023-02-24T02:54:34;25.30;;;9.07;;
12302;SDS011;6214;48.012;7.862;2023-02-24T02:57:10;22.63;;;9.30;;
12302;SDS011;6214;48.012;7.862;2023-02-24T02:59:40;21.27;;;9.05;;
12302;SDS011;6214;48.012;7.862;2023-02-24T03:02:15;24.08;;;9.10;;
12302;SDS011;6214;48.012;7.862;2023-02-24T03:04:50;21.67;;;8.60;;
12302;SDS011;6214;48.012;7.862;2023-02-24T03:07:21;22.30;;;8.40;;
12302;SDS011;6214;48.012;7.862;2023-02-24T03:09:58;22.35;;;8.20;;
12302;SDS011;6214;48.012;7.862;2023-02-24T03:12:31;21.70;;;8.30;;
12302;SDS011;6214;48.012;7.862;2023-02-24T03:15:00;23.17;;;8.90;;
12302;SDS011;6214;48.012;7.862;2023-02-24T03:17:34;23.10;;;8.48;;
12302;SDS011;6214;48.012;7.862;2023-02-24T03:20:12;21.55;;;7.93;;
12302;SDS011;6214;48.012;7.862;2023-02-24T03:22:49;22.23;;;8.27;;
12302;SDS011;6214;48.012;7.862;2023-02-24T03:25:22;21.17;;;7.00;;
12302;SDS011;6214;48.012;7.862;2023-02-24T03:27:54;21.83;;;7.50;;
12302;SDS011;6214;48.012;7.862;2023-02-24T03:30:31;22.38;;;7.88;;
12302;SDS011;6214;48.012;7.862;2023-02-24T03:33:09;21.17;;;7.35;;
12302;SDS011;6214;48.012;7.862;2023-02-24T03:35:49;22.02;;;7.28;;
12302;SDS011;6214;48.012;7.862;2023-02-24T03:38:18;22.70;;;7.43;;
12302;SDS011;6214;48.012;7.862;2023-02-24T03:40:45;20.83;;;6.63;;
12302;SDS011;6214;48.012;7.862;2023-02-24T03:43:16;20.98;;;6.45;;
12302;SDS011;6214;48.012;7.862;2023-02-24T03:45:44;22.13;;;6.90;;
12302;SDS011;6214;48.012;7.862;2023-02-24T03:48:12;20.90;;;6.85;;
12302;SDS011;6214;48.012;7.862;2023-02-24T03:50:40;20.27;;;6.47;;
12302;SDS011;6214;48.012;7.862;2023-02-24T03:53:27;22.67;;;6.35;;
12302;SDS011;6214;48.012;7.862;2023-02-24T04:02:04;19.70;;;6.00;;
12302;SDS011;6214;48.012;7.862;2023-02-24T04:05:10;21.60;;;6.43;;
12302;SDS011;6214;48.012;7.862;2023-02-24T04:13:34;22.75;;;6.70;;
12302;SDS011;6214;48.012;7.862;2023-02-24T04:16:12;23.13;;;6.70;;
12302;SDS011;6214;48.012;7.862;2023-02-24T04:19:03;22.42;;;6.97;;
12302;SDS011;6214;48.012;7.862;2023-02-24T04:21:40;23.45;;;7.20;;
12302;SDS011;6214;48.012;7.862;2023-02-24T04:24:10;22.02;;;6.20;;
12302;SDS011;6214;48.012;7.862;2023-02-24T04:26:42;21.85;;;7.10;;
12302;SDS011;6214;48.012;7.862;2023-02-24T04:29:12;20.90;;;6.68;;
12302;SDS011;6214;48.012;7.862;2023-02-24T04:31:46;21.98;;;7.00;;
12302;SDS011;6214;48.012;7.862;2023-02-24T04:34:16;22.55;;;6.45;;
12302;SDS011;6214;48.012;7.862;2023-02-24T04:36:46;20.45;;;6.20;;
12302;SDS011;6214;48.012;7.862;2023-02-24T04:39:16;22.30;;;5.80;;
12302;SDS011;6214;48.012;7.862;2023-02-24T04:41:48;19.20;;;5.70;;
12302;SDS011;6214;48.012;7.862;2023-02-24T04:44:17;22.10;;;5.78;;
12302;SDS011;6214;48.012;7.862;2023-02-24T04:46:46;24.63;;;5.80;;
12302;SDS011;6214;48.012;7.862;2023-02-24T04:49:18;20.40;;;5.25;;
12302;SDS011;6214;48.012;7.862;2023-02-24T04:51:45;22.05;;;5.93;;
12302;SDS011;6214;48.012;7.862;2023-02-24T04:54:13;22.58;;;5.97;;
12302;SDS011;6214;48.012;7.862;2023-02-24T04:56:47;22.15;;;5.55;;
12302;SDS011;6214;48.012;7.862;2023-02-24T04:59:16;19.30;;;5.32;;
12302;SDS011;6214;48.012;7.862;2023-02-24T05:01:46;20.90;;;4.90;;
12302;SDS011;6214;48.012;7.862;2023-02-24T05:04:17;19.47;;;5.40;;
12302;SDS011;6214;48.012;7.862;2023-02-24T05:06:44;20.30;;;5.72;;
12302;SDS011;6214;48.012;7.862;2023-02-24T05:09:15;20.52;;;5.32;;
12302;SDS011;6214;48.012;7.862;2023-02-24T05:11:44;22.80;;;6.05;;
12302;SDS011;6214;48.012;7.862;2023-02-24T05:14:14;22.83;;;5.95;;
12302;SDS011;6214;48.012;7.862;2023-02-24T05:16:44;21.23;;;5.40;;
12302;SDS011;6214;48.012;7.862;2023-02-24T05:19:14;19.67;;;5.53;;
12302;SDS011;6214;48.012;7.862;2023-02-24T05:22:01;21.08;;;5.50;;
12302;SDS011;6214;48.012;7.862;2023-02-24T05:24:29;23.50;;;8.00;;
12302;SDS011;6214;48.012;7.862;2023-02-24T05:26:56;22.27;;;7.70;;
12302;SDS011;6214;48.012;7.862;2023-02-24T05:29:28;23.98;;;9.30;;
12302;SDS011;6214;48.012;7.862;2023-02-24T05:31:58;22.20;;;9.00;;
12302;SDS011;6214;48.012;7.862;2023-02-24T05:34:26;25.63;;;9.20;;
12302;SDS011;6214;48.012;7.862;2023-02-24T05:36:56;24.00;;;8.95;;
12302;SDS011;6214;48.012;7.862;2023-02-24T05:39:24;23.27;;;9.52;;
12302;SDS011;6214;48.012;7.862;2023-02-24T05:41:52;23.80;;;9.73;;
12302;SDS011;6214;48.012;7.862;2023-02-24T05:44:23;22.75;;;9.45;;
12302;SDS011;6214;48.012;7.862;2023-02-24T05:46:53;23.83;;;9.70;;
12302;SDS011;6214;48.012;7.862;2023-02-24T05:49:28;24.42;;;9.40;;
12302;SDS011;6214;48.012;7.862;2023-02-24T05:52:00;22.70;;;9.10;;
12302;SDS011;6214;48.012;7.862;2023-02-24T05:54:35;22.98;;;8.85;;
12302;SDS011;6214;48.012;7.862;2023-02-24T05:57:08;71.07;;;45.05;;
12302;SDS011;6214;48.012;7.862;2023-02-24T05:59:41;31.77;;;17.80;;
12302;SDS011;6214;48.012;7.862;2023-02-24T06:02:11;27.50;;;11.25;;
12302;SDS011;6214;48.012;7.862;2023-02-24T06:04:40;20.73;;;7.90;;
12302;SDS011;6214;48.012;7.862;2023-02-24T06:07:23;21.55;;;8.20;;
12302;SDS011;6214;48.012;7.862;2023-02-24T06:09:53;24.65;;;8.95;;
12302;SDS011;6214;48.012;7.862;2023-02-24T06:12:25;23.10;;;8.90;;
12302;SDS011;6214;48.012;7.862;2023-02-24T06:14:54;22.73;;;8.40;;
12302;SDS011;6214;48.012;7.862;2023-02-24T06:17:23;22.45;;;8.60;;
12302;SDS011;6214;48.012;7.862;2023-02-24T06:19:51;22.88;;;8.30;;
12302;SDS011;6214;48.012;7.862;2023-02-24T06:22:20;22.05;;;8.52;;
12302;SDS011;6214;48.012;7.862;2023-02-24T06:24:49;21.95;;;8.27;;
12302;SDS011;6214;48.012;7.862;2023-02-24T06:27:16;23.95;;;8.20;;
12302;SDS011;6214;48.012;7.862;2023-02-24T06:29:48;21.77;;;8.27;;
12302;SDS011;6214;48.012;7.862;2023-02-24T06:32:17;23.83;;;8.60;;
12302;SDS011;6214;48.012;7.862;2023-02-24T06:34:45;23.80;;;8.40;;
12302;SDS011;6214;48.012;7.862;2023-02-24T06:37:13;21.65;;;8.15;;
12302;SDS011;6214;48.012;7.862;2023-02-24T06:39:41;24.52;;;8.15;;
12302;SDS011;6214;48.012;7.862;2023-02-24T06:42:10;23.05;;;8.02;;
12302;SDS011;6214;48.012;7.862;2023-02-24T06:44:38;22.70;;;8.20;;
12302;SDS011;6214;48.012;7.862;2023-02-24T06:47:07;22.80;;;7.95;;
12302;SDS011;6214;48.012;7.862;2023-02-24T06:49:36;23.35;;;8.70;;
12302;SDS011;6214;48.012;7.862;2023-02-24T06:52:03;22.50;;;9.00;;
12302;SDS011;6214;48.012;7.862;2023-02-24T06:54:31;23.70;;;8.23;;
12302;SDS011;6214;48.012;7.862;2023-02-24T06:57:01;23.88;;;8.35;;
12302;SDS011;6214;48.012;7.862;2023-02-24T06:59:29;24.20;;;8.90;;
12302;SDS011;6214;48.012;7.862;2023-02-24T07:01:57;23.15;;;9.15;;
12302;SDS011;6214;48.012;7.862;2023-02-24T07:04:27;23.88;;;8.27;;
12302;SDS011;6214;48.012;7.862;2023-02-24T07:06:57;23.00;;;8.13;;
12302;SDS011;6214;48.012;7.862;2023-02-24T07:09:29;24.88;;;9.23;;
12302;SDS011;6214;48.012;7.862;2023-02-24T07:11:57;22.50;;;8.77;;
12302;SDS011;6214;48.012;7.862;2023-02-24T07:14:27;24.00;;;9.00;;
12302;SDS011;6214;48.012;7.862;2023-02-24T07:16:56;24.13;;;8.88;;
12302;SDS011;6214;48.012;7.862;2023-02-24T07:19:25;23.00;;;9.13;;
12302;SDS011;6214;48.012;7.862;2023-02-24T07:21:56;23.25;;;8.90;;
12302;SDS011;6214;48.012;7.862;2023-02-24T07:24:30;21.90;;;9.00;;
12302;SDS011;6214;48.012;7.862;2023-02-24T07:27:05;28.97;;;11.90;;
12302;SDS011;6214;48.012;7.862;2023-02-24T07:29:33;25.37;;;9.80;;
12302;SDS011;6214;48.012;7.862;2023-02-24T07:32:01;24.65;;;9.95;;
12302;SDS011;6214;48.012;7.862;2023-02-24T07:34:32;24.08;;;8.30;;
12302;SDS011;6214;48.012;7.862;2023-02-24T07:36:59;24.83;;;8.70;;
12302;SDS011;6214;48.012;7.862;2023-02-24T07:39:33;24.80;;;8.70;;
12302;SDS011;6214;48.012;7.862;2023-02-24T07:42:06;23.02;;;8.55;;
12302;SDS011;6214;48.012;7.862;2023-02-24T07:44:35;24.08;;;9.10;;
12302;SDS011;6214;48.012;7.862;2023-02-24T07:47:04;25.15;;;9.20;;
12302;SDS011;6214;48.012;7.862;2023-02-24T07:49:33;25.33;;;8.45;;
12302;SDS011;6214;48.012;7.862;2023-02-24T07:52:01;22.50;;;8.60;;
12302;SDS011;6214;48.012;7.862;2023-02-24T07:54:28;21.50;;;8.02;;
12302;SDS011;6214;48.012;7.862;2023-02-24T07:56:56;22.38;;;8.65;;
12302;SDS011;6214;48.012;7.862;2023-02-24T07:59:31;23.13;;;8.73;;
12302;SDS011;6214;48.012;7.862;2023-02-24T08:02:00;24.67;;;8.63;;
12302;SDS011;6214;48.012;7.862;2023-02-24T08:04:30;21.75;;;8.48;;
12302;SDS011;6214;48.012;7.862;2023-02-24T08:06:58;22.35;;;8.15;;
12302;SDS011;6214;48.012;7.862;2023-02-24T08:09:29;20.83;;;7.75;;
12302;SDS011;6214;48.012;7.862;2023-02-24T08:12:14;23.23;;;7.72;;
12302;SDS011;6214;48.012;7.862;2023-02-24T08:14:48;23.17;;;8.70;;
12302;SDS011;6214;48.012;7.862;2023-02-24T08:17:18;22.83;;;7.90;;
12302;SDS011;6214;48.012;7.862;2023-02-24T08:19:47;22.10;;;7.80;;
12302;SDS011;6214;48.012;7.862;2023-02-24T08:22:15;27.20;;;9.10;;
12302;SDS011;6214;48.012;7.862;2023-02-24T08:24:46;24.38;;;8.93;;
12302;SDS011;6214;48.012;7.862;2023-02-24T08:27:16;24.73;;;8.82;;
12302;SDS011;6214;48.012;7.862;2023-02-24T08:29:47;22.92;;;7.82;;
12302;SDS011;6214;48.012;7.862;2023-02-24T08:32:26;23.60;;;8.15;;
12302;SDS011;6214;48.012;7.862;2023-02-24T08:35:00;22.90;;;7.90;;
12302;SDS011;6214;48.012;7.862;2023-02-24T08:37:29;23.07;;;8.23;;
12302;SDS011;6214;48.012;7.862;2023-02-24T08:40:16;22.77;;;9.18;;
12302;SDS011;6214;48.012;7.862;2023-02-24T08:43:06;24.58;;;8.30;;
12302;SDS011;6214;48.012;7.862;2023-02-24T08:45:43;23.90;;;9.02;;
12302;SDS011;6214;48.012;7.862;2023-02-24T08:48:17;24.17;;;9.30;;
12302;SDS011;6214;48.012;7.862;2023-02-24T08:50:53;24.70;;;8.45;;
12302;SDS011;6214;48.012;7.862;2023-02-24T08:53:22;25.92;;;9.60;;
12302;SDS011;6214;48.012;7.862;2023-02-24T08:55:54;24.60;;;8.50;;
12302;SDS011;6214;48.012;7.862;2023-02-24T08:58:22;23.03;;;8.50;;
12302;SDS011;6214;48.012;7.862;2023-02-24T09:00:53;25.23;;;8.20;;
12302;SDS011;6214;48.012;7.862;2023-02-24T09:03:25;25.83;;;9.63;;
12302;SDS011;6214;48.012;7.862;2023-02-24T09:06:01;25.52;;;8.50;;
12302;SDS011;6214;48.012;7.862;2023-02-24T09:08:34;23.27;;;8.55;;
12302;SDS011;6214;48.012;7.862;2023-02-24T09:11:05;23.92;;;9.80;;
12302;SDS011;6214;48.012;7.862;2023-02-24T09:13:35;25.17;;;10.00;;
12302;SDS011;6214;48.012;7.862;2023-02-24T09:16:08;24.73;;;9.55;;
12302;SDS011;6214;48.012;7.862;2023-02-24T09:18:41;25.70;;;10.37;;
12302;SDS011;6214;48.012;7.862;2023-02-24T09:21:10;25.48;;;9.57;;
12302;SDS011;6214;48.012;7.862;2023-02-24T09:24:10;28.10;;;10.30;;
12302;SDS011;6214;48.012;7.862;2023-02-24T09:26:39;25.13;;;10.55;;
12302;SDS011;6214;48.012;7.862;2023-02-24T09:29:11;25.45;;;10.48;;
12302;SDS011;6214;48.012;7.862;2023-02-24T09:31:57;26.10;;;10.50;;
12302;SDS011;6214;48.012;7.862;2023-02-24T09:34:38;27.08;;;10.43;;
12302;SDS011;6214;48.012;7.862;2023-02-24T09:37:10;26.20;;;10.40;;
12302;SDS011;6214;48.012;7.862;2023-02-24T09:39:51;25.77;;;9.32;;
12302;SDS011;6214;48.012;7.862;2023-02-24T09:42:25;26.17;;;9.13;;
12302;SDS011;6214;48.012;7.862;2023-02-24T09:45:03;23.92;;;9.90;;
12302;SDS011;6214;48.012;7.862;2023-02-24T09:47:38;24.27;;;9.90;;
12302;SDS011;6214;48.012;7.862;2023-02-24T09:50:30;25.98;;;9.70;;
12302;SDS011;6214;48.012;7.862;2023-02-24T09:53:30;24.88;;;9.75;;
12302;SDS011;6214;48.012;7.862;2023-02-24T09:56:09;24.35;;;10.07;;
12302;SDS011;6214;48.012;7.862;2023-02-24T10:07:16;28.35;;;11.70;;
12302;SDS011;6214;48.012;7.862;2023-02-24T10:10:22;26.65;;;11.55;;
12302;SDS011;6214;48.012;7.862;2023-02-24T10:15:55;26.88;;;10.63;;
12302;SDS011;6214;48.012;7.862;2023-02-24T10:18:32;26.00;;;11.18;;
12302;SDS011;6214;48.012;7.862;2023-02-24T10:21:11;26.08;;;11.63;;
12302;SDS011;6214;48.012;7.862;2023-02-24T10:26:56;26.08;;;10.90;;
12302;SDS011;6214;48.012;7.862;2023-02-24T10:29:40;25.63;;;11.00;;
12302;SDS011;6214;48.012;7.862;2023-02-24T10:35:27;25.50;;;10.88;;
12302;SDS011;6214;48.012;7.862;2023-02-24T10:37:59;29.20;;;11.70;;
12302;SDS011;6214;48.012;7.862;2023-02-24T10:40:31;26.13;;;11.35;;
12302;SDS011;6214;48.012;7.862;2023-02-24T10:43:13;30.92;;;11.52;;
12302;SDS011;6214;48.012;7.862;2023-02-24T10:45:44;25.55;;;10.90;;
12302;SDS011;6214;48.012;7.862;2023-02-24T10:48:17;27.08;;;11.60;;
12302;SDS011;6214;48.012;7.862;2023-02-24T10:51:15;26.02;;;11.70;;
12302;SDS011;6214;48.012;7.862;2023-02-24T10:57:30;26.83;;;11.30;;
12302;SDS011;6214;48.012;7.862;2023-02-24T11:00:16;27.55;;;11.80;;
12302;SDS011;6214;48.012;7.862;2023-02-24T11:02:56;27.70;;;11.80;;
12302;SDS011;6214;48.012;7.862;2023-02-24T11:05:36;24.53;;;11.27;;
12302;SDS011;6214;48.012;7.862;2023-02-24T11:08:26;26.87;;;11.63;;
12302;SDS011;6214;48.012;7.862;2023-02-24T11:13:51;27.77;;;11.93;;
12302;SDS011;6214;48.012;7.862;2023-02-24T11:22:15;26.23;;;12.02;;
12302;SDS011;6214;48.012;7.862;2023-02-24T11:24:46;27.27;;;11.98;;
12302;SDS011;6214;48.012;7.862;2023-02-24T11:27:16;30.23;;;13.27;;
12302;SDS011;6214;48.012;7.862;2023-02-24T11:35:39;27.43;;;11.17;;
12302;SDS011;6214;48.012;7.862;2023-02-24T11:41:11;26.77;;;11.70;;
12302;SDS011;6214;48.012;7.862;2023-02-24T11:43:51;27.10;;;11.90;;
12302;SDS011;6214;48.012;7.862;2023-02-24T11:46:31;25.02;;;10.35;;
12302;SDS011;6214;48.012;7.862;2023-02-24T11:49:07;26.55;;;11.40;;
12302;SDS011;6214;48.012;7.862;2023-02-24T11:51:49;24.35;;;10.52;;
12302;SDS011;6214;48.012;7.862;2023-02-24T11:54:19;26.00;;;11.18;;
12302;SDS011;6214;48.012;7.862;2023-02-24T11:56:51;27.33;;;11.85;;
12302;SDS011;6214;48.012;7.862;2023-02-24T11:59:32;28.42;;;11.30;;
12302;SDS011;6214;48.012;7.862;2023-02-24T12:07:25;28.77;;;12.52;;
12302;SDS011;6214;48.012;7.862;2023-02-24T12:10:20;28.63;;;12.15;;
12302;SDS011;6214;48.012;7.862;2023-02-24T12:15:43;25.70;;;11.10;;
12302;SDS011;6214;48.012;7.862;2023-02-24T12:18:25;27.70;;;10.83;;
12302;SDS011;6214;48.012;7.862;2023-02-24T12:21:02;25.48;;;11.63;;
12302;SDS011;6214;48.012;7.862;2023-02-24T12:23:34;27.13;;;11.80;;
12302;SDS011;6214;48.012;7.862;2023-02-24T12:39:46;26.83;;;11.68;;
12302;SDS011;6214;48.012;7.862;2023-02-24T12:45:25;26.20;;;11.00;;
12302;SDS011;6214;48.012;7.862;2023-02-24T12:53:21;26.55;;;11.18;;
12302;SDS011;6214;48.012;7.862;2023-02-24T12:56:33;27.37;;;12.67;;
12302;SDS011;6214;48.012;7.862;2023-02-24T12:58:59;26.02;;;11.90;;
12302;SDS011;6214;48.012;7.862;2023-02-24T13:01:35;27.80;;;11.40;;
12302;SDS011;6214;48.012;7.862;2023-02-24T13:07:33;24.10;;;10.88;;
12302;SDS011;6214;48.012;7.862;2023-02-24T13:15:26;25.75;;;11.25;;
12302;SDS011;6214;48.012;7.862;2023-02-24T13:17:56;25.98;;;11.30;;
12302;SDS011;6214;48.012;7.862;2023-02-24T13:20:35;25.83;;;10.95;;
12302;SDS011;6214;48.012;7.862;2023-02-24T13:23:16;24.52;;;11.48;;
12302;SDS011;6214;48.012;7.862;2023-02-24T13:25:52;24.65;;;10.63;;
12302;SDS011;6214;48.012;7.862;2023-02-24T13:31:23;27.08;;;11.02;;
12302;SDS011;6214;48.012;7.862;2023-02-24T13:33:43;24.70;;;11.00;;
12302;SDS011;6214;48.012;7.862;2023-02-24T13:38:48;25.35;;;11.00;;
12302;SDS011;6214;48.012;7.862;2023-02-24T13:52:27;25.73;;;10.85;;
12302;SDS011;6214;48.012;7.862;2023-02-24T14:03:26;25.65;;;11.85;;
12302;SDS011;6214;48.012;7.862;2023-02-24T14:05:54;26.05;;;11.80;;
12302;SDS011;6214;48.012;7.862;2023-02-24T14:08:27;26.67;;;12.33;;
12302;SDS011;6214;48.012;7.862;2023-02-24T14:11:02;28.27;;;12.67;;
12302;SDS011;6214;48.012;7.862;2023-02-24T14:13:30;26.43;;;11.60;;
12302;SDS011;6214;48.012;7.862;2023-02-24T14:16:06;26.42;;;12.40;;
12302;SDS011;6214;48.012;7.862;2023-02-24T14:18:34;27.05;;;12.27;;
12302;SDS011;6214;48.012;7.862;2023-02-24T14:21:02;27.40;;;12.95;;
12302;SDS011;6214;48.012;7.862;2023-02-24T14:23:31;27.65;;;12.02;;
12302;SDS011;6214;48.012;7.862;2023-02-24T14:26:01;26.63;;;11.90;;
12302;SDS011;6214;48.012;7.862;2023-02-24T14:28:38;27.35;;;12.63;;
12302;SDS011;6214;48.012;7.862;2023-02-24T14:31:07;27.65;;;12.95;;
12302;SDS011;6214;48.012;7.862;2023-02-24T14:33:36;25.95;;;13.18;;
12302;SDS011;6214;48.012;7.862;2023-02-24T14:36:06;28.13;;;12.85;;
12302;SDS011;6214;48.012;7.862;2023-02-24T14:38:42;25.07;;;11.70;;
12302;SDS011;6214;48.012;7.862;2023-02-24T14:41:18;27.90;;;12.60;;
12302;SDS011;6214;48.012;7.862;2023-02-24T14:43:48;27.40;;;12.73;;
12302;SDS011;6214;48.012;7.862;2023-02-24T14:46:16;26.33;;;12.55;;
12302;SDS011;6214;48.012;7.862;2023-02-24T14:48:44;25.00;;;11.93;;
12302;SDS011;6214;48.012;7.862;2023-02-24T14:51:30;27.70;;;12.30;;
12302;SDS011;6214;48.012;7.862;2023-02-24T14:54:02;26.83;;;11.70;;
12302;SDS011;6214;48.012;7.862;2023-02-24T14:56:33;28.25;;;11.82;;
12302;SDS011;6214;48.012;7.862;2023-02-24T14:59:02;27.52;;;12.57;;
12302;SDS011;6214;48.012;7.862;2023-02-24T15:01:45;26.92;;;11.65;;
12302;SDS011;6214;48.012;7.862;2023-02-24T15:06:54;25.83;;;11.75;;
12302;SDS011;6214;48.012;7.862;2023-02-24T15:09:22;27.23;;;11.80;;
12302;SDS011;6214;48.012;7.862;2023-02-24T15:11:52;25.60;;;12.20;;
12302;SDS011;6214;48.012;7.862;2023-02-24T15:14:22;27.10;;;11.93;;
12302;SDS011;6214;48.012;7.862;2023-02-24T15:16:57;28.02;;;11.98;;
12302;SDS011;6214;48.012;7.862;2023-02-24T15:22:03;27.55;;;13.00;;
12302;SDS011;6214;48.012;7.862;2023-02-24T15:24:43;26.05;;;11.63;;
12302;SDS011;6214;48.012;7.862;2023-02-24T15:29:41;27.27;;;12.50;;
12302;SDS011;6214;48.012;7.862;2023-02-24T15:32:13;27.25;;;11.85;;
12302;SDS011;6214;48.012;7.862;2023-02-24T15:34:44;29.85;;;12.55;;
12302;SDS011;6214;48.012;7.862;2023-02-24T15:37:24;27.80;;;11.50;;
12302;SDS011;6214;48.012;7.862;2023-02-24T15:40:06;26.65;;;11.60;;
12302;SDS011;6214;48.012;7.862;2023-02-24T15:42:55;29.27;;;12.43;;
12302;SDS011;6214;48.012;7.862;2023-02-24T15:45:34;27.48;;;12.90;;
12302;SDS011;6214;48.012;7.862;2023-02-24T15:48:15;29.25;;;12.73;;
12302;SDS011;6214;48.012;7.862;2023-02-24T15:50:45;28.02;;;12.43;;
12302;SDS011;6214;48.012;7.862;2023-02-24T15:53:13;27.50;;;13.10;;
12302;SDS011;6214;48.012;7.862;2023-02-24T15:55:40;26.83;;;12.43;;
12302;SDS011;6214;48.012;7.862;2023-02-24T15:58:16;26.85;;;12.48;;
12302;SDS011;6214;48.012;7.862;2023-02-24T16:00:45;27.38;;;12.68;;
12302;SDS011;6214;48.012;7.862;2023-02-24T16:03:12;29.77;;;12.90;;
12302;SDS011;6214;48.012;7.862;2023-02-24T16:05:39;27.38;;;13.02;;
12302;SDS011;6214;48.012;7.862;2023-02-24T16:08:08;27.85;;;12.63;;
12302;SDS011;6214;48.012;7.862;2023-02-24T16:10:38;28.02;;;12.50;;
12302;SDS011;6214;48.012;7.862;2023-02-24T16:13:07;26.63;;;11.60;;
12302;SDS011;6214;48.012;7.862;2023-02-24T16:15:44;27.95;;;12.65;;
12302;SDS011;6214;48.012;7.862;2023-02-24T16:18:13;26.30;;;12.27;;
12302;SDS011;6214;48.012;7.862;2023-02-24T16:20:47;26.47;;;12.90;;
12302;SDS011;6214;48.012;7.862;2023-02-24T16:23:22;27.70;;;12.82;;
12302;SDS011;6214;48.012;7.862;2023-02-24T16:25:53;26.85;;;13.18;;
12302;SDS011;6214;48.012;7.862;2023-02-24T16:28:22;28.17;;;12.90;;
12302;SDS011;6214;48.012;7.862;2023-02-24T16:30:49;26.63;;;12.38;;
12302;SDS011;6214;48.012;7.862;2023-02-24T16:33:17;26.52;;;12.52;;
12302;SDS011;6214;48.012;7.862;2023-02-24T16:35:48;27.38;;;12.73;;
12302;SDS011;6214;48.012;7.862;2023-02-24T16:38:19;28.70;;;12.73;;
12302;SDS011;6214;48.012;7.862;2023-02-24T16:40:47;26.00;;;12.52;;
12302;SDS011;6214;48.012;7.862;2023-02-24T16:43:15;27.50;;;12.23;;
12302;SDS011;6214;48.012;7.862;2023-02-24T16:45:42;25.33;;;11.63;;
12302;SDS011;6214;48.012;7.862;2023-02-24T16:48:20;28.20;;;11.30;;
12302;SDS011;6214;48.012;7.862;2023-02-24T16:50:50;28.02;;;11.40;;
12302;SDS011;6214;48.012;7.862;2023-02-24T16:53:18;27.90;;;12.00;;
12302;SDS011;6214;48.012;7.862;2023-02-24T16:55:48;26.92;;;12.77;;
12302;SDS011;6214;48.012;7.862;2023-02-24T16:58:16;26.92;;;12.57;;
12302;SDS011;6214;48.012;7.862;2023-02-24T17:00:45;25.58;;;11.82;;
12302;SDS011;6214;48.012;7.862;2023-02-24T17:05:44;27.55;;;12.70;;
12302;SDS011;6214;48.012;7.862;2023-02-24T17:08:12;27.02;;;12.50;;
12302;SDS011;6214;48.012;7.862;2023-02-24T17:10:39;29.80;;;12.57;;
12302;SDS011;6214;48.012;7.862;2023-02-24T17:13:10;27.98;;;13.68;;
12302;SDS011;6214;48.012;7.862;2023-02-24T17:15:40;26.77;;;13.93;;
12302;SDS011;6214;48.012;7.862;2023-02-24T17:18:08;25.17;;;13.30;;
12302;SDS011;6214;48.012;7.862;2023-02-24T17:20:36;30.65;;;14.40;;
12302;SDS011;6214;48.012;7.862;2023-02-24T17:23:04;30.30;;;13.80;;
12302;SDS011;6214;48.012;7.862;2023-02-24T17:25:32;28.40;;;13.68;;
12302;SDS011;6214;48.012;7.862;2023-02-24T17:27:59;28.42;;;13.73;;
12302;SDS011;6214;48.012;7.862;2023-02-24T17:30:27;26.10;;;13.80;;
12302;SDS011;6214;48.012;7.862;2023-02-24T17:32:57;27.60;;;14.18;;
12302;SDS011;6214;48.012;7.862;2023-02-24T17:35:24;28.63;;;14.13;;
12302;SDS011;6214;48.012;7.862;2023-02-24T17:37:52;28.90;;;14.40;;
12302;SDS011;6214;48.012;7.862;2023-02-24T17:40:19;27.40;;;13.82;;
12302;SDS011;6214;48.012;7.862;2023-02-24T17:42:47;28.38;;;15.15;;
12302;SDS011;6214;48.012;7.862;2023-02-24T17:45:14;30.57;;;16.40;;
12302;SDS011;6214;48.012;7.862;2023-02-24T17:47:41;32.38;;;16.98;;
12302;SDS011;6214;48.012;7.862;2023-02-24T17:50:09;29.17;;;15.90;;